Time;durP1;ratioP1;P1;durP2;ratioP2;P2;SDS_P1;SDS_P2;PMS_P1;PMS_P2;Temp;Humidity;BMP_temperature;BMP_pressure;BME280_temperature;BME280_humidity;BME280_pressure;Samples;Min_cycle;Max_cycle;Signal;HPM_P1;HPM_P2
2021/01/02 00:01:23;;;;;;;;;;;23.20;36.80;;;;;;1572377;74;751;-65
2021/01/02 00:03:35;;;;;;;;;;;23.20;36.80;;;;;;1573796;74;1631;-65
2021/01/02 00:05:47;;;;;;;;;;;23.20;36.80;;;;;;1562771;75;1831;-66
2021/01/02 00:08:07;;;;;;;;;;;23.20;36.90;;;;;;1570710;74;1040;-65
2021/01/02 00:10:10;;;;;;;;;;;23.30;36.90;;;;;;1578245;75;760;-65
2021/01/02 00:12:23;;;;;;;;;;;23.20;36.90;;;;;;1564912;75;740;-65
2021/01/02 00:14:26;;;;;;;;;;;23.20;37.00;;;;;;1565367;75;1489;-65
2021/01/02 00:16:38;;;;;;;;;;;23.20;36.90;;;;;;1571356;75;1946;-65
2021/01/02 00:18:57;;;;;;;;;;;23.20;37.00;;;;;;1575605;75;2109;-64
2021/01/02 00:21:02;;;;;;;;;;;23.30;37.20;;;;;;1574356;75;1872;-63
2021/01/02 00:23:04;;;;;;;;;;;23.20;37.10;;;;;;1575198;75;786;-63
2021/01/02 00:25:07;;;;;;;;;;;23.20;37.30;;;;;;1568545;75;690;-64
2021/01/02 00:27:10;;;;;;;;;;;23.30;37.40;;;;;;1563169;75;1108;-64
2021/01/02 00:29:13;;;;;;;;;;;23.20;37.30;;;;;;1574451;74;729;-64
2021/01/02 00:31:17;;;;;;;;;;;23.20;37.40;;;;;;1563876;75;1868;-65
2021/01/02 00:33:19;;;;;;;;;;;23.30;37.50;;;;;;1573120;75;2091;-64
2021/01/02 00:35:22;;;;;;;;;;;23.20;37.40;;;;;;1577372;75;1156;-64
2021/01/02 00:37:30;;;;;;;;;;;23.20;37.50;;;;;;1574542;74;1947;-65
2021/01/02 00:39:37;;;;;;;;;;;23.20;37.50;;;;;;1567733;75;717;-64
2021/01/02 00:41:38;;;;;;;;;;;23.20;37.50;;;;;;1562311;75;2166;-64
2021/01/02 00:43:40;;;;;;;;;;;23.20;37.40;;;;;;1572633;75;779;-65
2021/01/02 00:45:42;;;;;;;;;;;23.20;37.50;;;;;;1569786;75;1138;-65
2021/01/02 00:47:44;;;;;;;;;;;23.20;37.50;;;;;;1562950;75;712;-65
2021/01/02 00:49:46;;;;;;;;;;;23.20;37.50;;;;;;1570923;75;828;-66
2021/01/02 00:51:49;;;;;;;;;;;23.20;37.60;;;;;;1563289;75;785;-66
2021/01/02 00:53:58;;;;;;;;;;;23.30;37.60;;;;;;1569448;75;748;-65
2021/01/02 00:56:04;;;;;;;;;;;23.30;37.60;;;;;;1567913;74;1958;-64
2021/01/02 00:58:08;;;;;;;;;;;23.30;37.60;;;;;;1574481;74;791;-64
2021/01/02 01:00:10;;;;;;;;;;;23.20;37.70;;;;;;1566938;75;814;-64
2021/01/02 01:02:30;;;;;;;;;;;23.30;37.90;;;;;;1567646;74;1060;-64
2021/01/02 01:04:33;;;;;;;;;;;23.30;37.90;;;;;;1576637;74;750;-65
2021/01/02 01:06:38;;;;;;;;;;;23.20;38.00;;;;;;1567217;74;1120;-65
2021/01/02 01:08:41;;;;;;;;;;;23.20;38.20;;;;;;1564697;74;714;-65
2021/01/02 01:10:43;;;;;;;;;;;23.10;38.30;;;;;;1570930;74;1728;-65
2021/01/02 01:12:45;;;;;;;;;;;23.10;38.50;;;;;;1568727;74;731;-65
2021/01/02 01:14:47;;;;;;;;;;;23.10;38.40;;;;;;1568332;74;722;-65
2021/01/02 01:16:50;;;;;;;;;;;23.10;38.50;;;;;;1570592;74;1967;-65
2021/01/02 01:18:58;;;;;;;;;;;23.10;38.60;;;;;;1578131;74;702;-64
2021/01/02 01:21:01;;;;;;;;;;;23.00;38.40;;;;;;1567637;74;851;-65
2021/01/02 01:23:04;;;;;;;;;;;23.10;38.40;;;;;;1572763;74;820;-65
2021/01/02 01:25:06;;;;;;;;;;;23.10;38.40;;;;;;1573798;74;2146;-65
2021/01/02 01:27:10;;;;;;;;;;;23.20;38.30;;;;;;1564274;74;1152;-64
2021/01/02 01:29:13;;;;;;;;;;;23.20;38.10;;;;;;1567251;74;1902;-64
2021/01/02 01:31:19;;;;;;;;;;;23.20;38.10;;;;;;1565867;74;1862;-65
2021/01/02 01:33:22;;;;;;;;;;;23.20;38.10;;;;;;1564357;74;781;-64
2021/01/02 01:35:24;;;;;;;;;;;23.20;38.00;;;;;;1574246;74;1147;-64
2021/01/02 01:37:27;;;;;;;;;;;23.30;38.00;;;;;;1563016;74;1935;-64
2021/01/02 01:39:29;;;;;;;;;;;23.30;38.00;;;;;;1570447;74;736;-64
2021/01/02 01:41:33;;;;;;;;;;;23.40;37.80;;;;;;1577482;74;758;-64
2021/01/02 01:43:52;;;;;;;;;;;23.40;37.80;;;;;;1588609;74;758;-64
2021/01/02 01:45:58;;;;;;;;;;;23.40;37.80;;;;;;1566813;74;1147;-63
2021/01/02 01:48:07;;;;;;;;;;;23.30;37.90;;;;;;1549244;74;1437;-63
2021/01/02 01:50:16;;;;;;;;;;;23.30;37.90;;;;;;1562139;74;747;-62
2021/01/02 01:52:32;;;;;;;;;;;23.30;38.10;;;;;;1563480;74;724;-62
2021/01/02 01:54:37;;;;;;;;;;;23.20;38.00;;;;;;1567403;74;1934;-63
2021/01/02 01:56:41;;;;;;;;;;;23.20;38.00;;;;;;1573759;74;1947;-62
2021/01/02 01:58:44;;;;;;;;;;;23.20;38.00;;;;;;1579338;74;1929;-62
2021/01/02 02:00:47;;;;;;;;;;;23.20;37.90;;;;;;1576646;74;1376;-62
2021/01/02 02:02:50;;;;;;;;;;;23.20;37.90;;;;;;1569150;75;1122;-62
2021/01/02 02:04:54;;;;;;;;;;;23.20;37.80;;;;;;1560218;75;685;-63
2021/01/02 02:06:57;;;;;;;;;;;23.30;37.90;;;;;;1561501;75;1192;-64
2021/01/02 02:08:59;;;;;;;;;;;23.30;37.90;;;;;;1566757;74;2018;-64
2021/01/02 02:11:04;;;;;;;;;;;23.30;37.80;;;;;;1563759;75;686;-63
2021/01/02 02:13:11;;;;;;;;;;;23.30;37.80;;;;;;1571368;74;791;-64
2021/01/02 02:15:13;;;;;;;;;;;23.20;37.80;;;;;;1566657;75;772;-64
2021/01/02 02:17:17;;;;;;;;;;;23.20;38.00;;;;;;1572784;75;1928;-64
2021/01/02 02:19:37;;;;;;;;;;;23.20;38.00;;;;;;1561725;75;1176;-64
2021/01/02 02:21:39;;;;;;;;;;;23.10;38.10;;;;;;1581291;75;715;-64
2021/01/02 02:23:42;;;;;;;;;;;23.10;38.10;;;;;;1570673;75;705;-64
2021/01/02 02:25:45;;;;;;;;;;;23.20;38.10;;;;;;1560088;75;1155;-64
2021/01/02 02:27:47;;;;;;;;;;;23.10;38.10;;;;;;1555532;75;1629;-63
2021/01/02 02:29:51;;;;;;;;;;;23.10;38.10;;;;;;1565320;75;765;-64
2021/01/02 02:31:54;;;;;;;;;;;23.20;38.10;;;;;;1563808;75;1046;-64
2021/01/02 02:33:57;;;;;;;;;;;23.20;38.10;;;;;;1558346;74;800;-65
2021/01/02 02:35:59;;;;;;;;;;;23.20;38.10;;;;;;1574353;75;1133;-64
2021/01/02 02:38:01;;;;;;;;;;;23.20;38.20;;;;;;1563846;75;1924;-64
2021/01/02 02:40:04;;;;;;;;;;;23.20;38.20;;;;;;1568162;75;677;-64
2021/01/02 02:42:06;;;;;;;;;;;23.60;38.40;;;;;;1560464;74;746;-63
2021/01/02 02:44:10;;;;;;;;;;;23.20;38.10;;;;;;1564440;75;881;-64
2021/01/02 02:46:12;;;;;;;;;;;23.10;38.10;;;;;;1570877;75;1093;-64
2021/01/02 02:48:14;;;;;;;;;;;23.10;38.10;;;;;;1565600;75;742;-64
2021/01/02 02:50:17;;;;;;;;;;;23.20;38.10;;;;;;1570786;74;747;-63
2021/01/02 02:52:24;;;;;;;;;;;23.20;38.10;;;;;;1571808;75;717;-63
2021/01/02 02:54:26;;;;;;;;;;;23.20;38.10;;;;;;1565358;75;729;-63
2021/01/02 02:56:28;;;;;;;;;;;23.20;38.10;;;;;;1559803;74;1940;-64
2021/01/02 02:58:31;;;;;;;;;;;23.20;38.00;;;;;;1575948;75;816;-63
2021/01/02 03:00:33;;;;;;;;;;;23.20;38.00;;;;;;1575601;75;1562;-65
2021/01/02 03:02:35;;;;;;;;;;;23.20;37.90;;;;;;1562249;75;730;-64
2021/01/02 03:04:37;;;;;;;;;;;23.20;37.80;;;;;;1556948;74;1103;-62
2021/01/02 03:06:39;;;;;;;;;;;23.20;37.90;;;;;;1573067;74;1250;-63
2021/01/02 03:08:41;;;;;;;;;;;23.20;38.00;;;;;;1561545;75;784;-64
2021/01/02 03:10:43;;;;;;;;;;;23.20;38.10;;;;;;1565503;75;695;-64
2021/01/02 03:12:45;;;;;;;;;;;23.20;38.10;;;;;;1568419;75;728;-64
2021/01/02 03:14:47;;;;;;;;;;;23.20;38.10;;;;;;1577054;75;737;-65
2021/01/02 03:16:49;;;;;;;;;;;23.20;38.20;;;;;;1569220;74;1950;-64
2021/01/02 03:18:51;;;;;;;;;;;23.20;38.10;;;;;;1555830;74;835;-64
2021/01/02 03:20:53;;;;;;;;;;;23.20;38.10;;;;;;1563527;74;818;-63
2021/01/02 03:22:55;;;;;;;;;;;23.20;38.00;;;;;;1563193;74;778;-63
2021/01/02 03:24:56;;;;;;;;;;;23.30;38.10;;;;;;1568289;75;779;-65
2021/01/02 03:26:58;;;;;;;;;;;23.20;38.00;;;;;;1555648;74;1156;-65
2021/01/02 03:29:00;;;;;;;;;;;23.30;38.10;;;;;;1575964;74;774;-65
2021/01/02 03:31:02;;;;;;;;;;;23.20;38.00;;;;;;1558786;75;800;-65
2021/01/02 03:33:04;;;;;;;;;;;23.20;38.00;;;;;;1578214;75;760;-65
2021/01/02 03:35:06;;;;;;;;;;;23.30;38.10;;;;;;1564281;75;719;-64
2021/01/02 03:37:08;;;;;;;;;;;23.20;38.10;;;;;;1561210;75;1942;-65
2021/01/02 03:39:10;;;;;;;;;;;23.30;38.10;;;;;;1564498;74;831;-66
2021/01/02 03:41:12;;;;;;;;;;;23.30;38.10;;;;;;1555516;75;750;-65
2021/01/02 03:43:14;;;;;;;;;;;23.30;38.10;;;;;;1561901;75;690;-65
2021/01/02 03:45:17;;;;;;;;;;;23.30;38.10;;;;;;1570272;75;603;-65
2021/01/02 03:47:18;;;;;;;;;;;23.20;38.10;;;;;;1562775;75;1158;-65
2021/01/02 03:49:20;;;;;;;;;;;23.30;38.30;;;;;;1579972;75;803;-65
2021/01/02 03:51:23;;;;;;;;;;;23.20;38.30;;;;;;1555252;75;815;-65
2021/01/02 03:53:25;;;;;;;;;;;23.20;38.30;;;;;;1572186;75;775;-65
2021/01/02 03:55:27;;;;;;;;;;;23.20;38.40;;;;;;1559547;74;1164;-64
2021/01/02 03:57:28;;;;;;;;;;;23.20;38.30;;;;;;1561524;74;1929;-64
2021/01/02 03:59:30;;;;;;;;;;;23.20;38.40;;;;;;1566856;75;748;-63
2021/01/02 04:01:32;;;;;;;;;;;23.20;38.40;;;;;;1559077;74;778;-65
2021/01/02 04:03:34;;;;;;;;;;;23.30;38.40;;;;;;1554129;75;754;-66
2021/01/02 04:05:36;;;;;;;;;;;23.20;38.40;;;;;;1558084;74;1226;-65
2021/01/02 04:07:38;;;;;;;;;;;23.20;38.40;;;;;;1564740;75;888;-65
2021/01/02 04:09:40;;;;;;;;;;;23.20;38.50;;;;;;1567682;75;682;-61
2021/01/02 04:11:44;;;;;;;;;;;23.10;38.70;;;;;;1568161;75;756;-62
2021/01/02 04:13:46;;;;;;;;;;;23.20;38.60;;;;;;1569143;75;760;-62
2021/01/02 04:15:48;;;;;;;;;;;23.20;38.60;;;;;;1558787;75;1156;-62
2021/01/02 04:17:50;;;;;;;;;;;23.10;38.70;;;;;;1569596;74;1915;-62
2021/01/02 04:19:53;;;;;;;;;;;23.10;38.70;;;;;;1556209;75;758;-63
2021/01/02 04:21:55;;;;;;;;;;;23.20;38.80;;;;;;1556554;75;741;-65
2021/01/02 04:23:57;;;;;;;;;;;23.20;38.80;;;;;;1561905;74;809;-65
2021/01/02 04:25:58;;;;;;;;;;;23.10;38.70;;;;;;1568046;74;1085;-64
2021/01/02 04:28:00;;;;;;;;;;;23.10;38.80;;;;;;1576890;75;780;-64
2021/01/02 04:30:03;;;;;;;;;;;23.10;38.80;;;;;;1561625;75;737;-65
2021/01/02 04:32:06;;;;;;;;;;;23.10;38.80;;;;;;1555176;74;910;-65
2021/01/02 04:34:08;;;;;;;;;;;23.10;38.90;;;;;;1567046;75;768;-64
2021/01/02 04:36:12;;;;;;;;;;;23.10;38.80;;;;;;1564636;75;1047;-64
2021/01/02 04:38:13;;;;;;;;;;;23.20;38.70;;;;;;1567937;75;1941;-64
2021/01/02 04:40:15;;;;;;;;;;;23.20;38.60;;;;;;1564713;75;768;-64
2021/01/02 04:42:17;;;;;;;;;;;23.20;38.60;;;;;;1566047;74;737;-65
2021/01/02 04:44:19;;;;;;;;;;;23.20;38.60;;;;;;1564975;75;789;-63
2021/01/02 04:46:22;;;;;;;;;;;23.30;38.60;;;;;;1559996;75;1133;-63
2021/01/02 04:48:24;;;;;;;;;;;23.20;38.50;;;;;;1573414;75;704;-63
2021/01/02 04:50:26;;;;;;;;;;;23.20;38.40;;;;;;1567282;75;770;-63
2021/01/02 04:52:28;;;;;;;;;;;23.20;38.50;;;;;;1566621;75;749;-64
2021/01/02 04:54:29;;;;;;;;;;;23.30;38.60;;;;;;1581204;74;749;-64
2021/01/02 04:56:35;;;;;;;;;;;23.30;38.60;;;;;;1565751;74;1160;-64
2021/01/02 04:58:37;;;;;;;;;;;23.20;38.50;;;;;;1572204;75;1930;-63
2021/01/02 05:00:39;;;;;;;;;;;23.20;38.50;;;;;;1560586;75;751;-63
2021/01/02 05:02:41;;;;;;;;;;;23.30;38.60;;;;;;1557501;75;784;-63
2021/01/02 05:04:45;;;;;;;;;;;23.30;38.50;;;;;;1570728;75;1137;-64
2021/01/02 05:06:46;;;;;;;;;;;23.30;38.40;;;;;;1574657;75;1220;-64
2021/01/02 05:08:51;;;;;;;;;;;23.40;38.70;;;;;;1561919;74;753;-63
2021/01/02 05:11:01;;;;;;;;;;;23.30;38.60;;;;;;1563360;74;823;-63
2021/01/02 05:13:10;;;;;;;;;;;23.30;38.60;;;;;;1565347;75;777;-63
2021/01/02 05:15:12;;;;;;;;;;;23.20;38.60;;;;;;1565735;75;746;-64
2021/01/02 05:17:16;;;;;;;;;;;23.20;38.80;;;;;;1555449;75;1939;-64
2021/01/02 05:19:18;;;;;;;;;;;23.30;38.80;;;;;;1559536;75;1867;-65
2021/01/02 05:21:20;;;;;;;;;;;23.40;38.60;;;;;;1563340;74;781;-64
2021/01/02 05:23:22;;;;;;;;;;;23.40;38.50;;;;;;1576787;74;796;-65
2021/01/02 05:25:23;;;;;;;;;;;23.40;38.70;;;;;;1572805;74;1129;-64
2021/01/02 05:27:27;;;;;;;;;;;23.30;38.80;;;;;;1569215;74;716;-64
2021/01/02 05:29:29;;;;;;;;;;;23.20;38.60;;;;;;1559434;75;1830;-64
2021/01/02 05:31:31;;;;;;;;;;;23.30;38.80;;;;;;1563853;74;1117;-64
2021/01/02 05:33:33;;;;;;;;;;;23.20;38.60;;;;;;1562918;75;757;-64
2021/01/02 05:35:36;;;;;;;;;;;23.40;38.50;;;;;;1574879;75;1144;-65
2021/01/02 05:37:38;;;;;;;;;;;23.40;38.50;;;;;;1569332;75;1913;-65
2021/01/02 05:39:40;;;;;;;;;;;23.40;38.50;;;;;;1565698;75;739;-64
2021/01/02 05:41:49;;;;;;;;;;;23.40;38.50;;;;;;1564471;74;761;-65
2021/01/02 05:43:50;;;;;;;;;;;23.40;38.40;;;;;;1560757;74;742;-66
2021/01/02 05:45:52;;;;;;;;;;;23.40;38.40;;;;;;1556255;75;1139;-65
2021/01/02 05:47:56;;;;;;;;;;;23.30;38.40;;;;;;1572777;75;717;-65
2021/01/02 05:49:58;;;;;;;;;;;23.40;38.30;;;;;;1573328;75;739;-65
2021/01/02 05:52:04;;;;;;;;;;;23.40;38.40;;;;;;1565705;75;697;-64
2021/01/02 05:54:09;;;;;;;;;;;23.40;38.30;;;;;;1558063;75;1785;-65
2021/01/02 05:56:14;;;;;;;;;;;23.40;38.30;;;;;;1560195;74;1121;-66
2021/01/02 05:58:17;;;;;;;;;;;23.40;38.30;;;;;;1574864;74;1933;-66
2021/01/02 06:00:19;;;;;;;;;;;23.40;38.30;;;;;;1560699;74;748;-65
2021/01/02 06:02:22;;;;;;;;;;;23.40;38.20;;;;;;1557358;75;734;-66
2021/01/02 06:04:24;;;;;;;;;;;23.50;38.30;;;;;;1576897;75;792;-64
2021/01/02 06:06:26;;;;;;;;;;;23.40;38.30;;;;;;1568968;74;1196;-64
2021/01/02 06:08:36;;;;;;;;;;;23.40;38.30;;;;;;1568524;74;700;-63
2021/01/02 06:10:37;;;;;;;;;;;23.40;38.20;;;;;;1572981;74;1975;-64
2021/01/02 06:12:40;;;;;;;;;;;23.40;38.30;;;;;;1577840;74;696;-63
2021/01/02 06:14:42;;;;;;;;;;;23.40;38.20;;;;;;1571281;74;787;-64
2021/01/02 06:16:44;;;;;;;;;;;23.40;38.30;;;;;;1563379;74;1140;-64
2021/01/02 06:18:46;;;;;;;;;;;23.40;38.20;;;;;;1585547;74;1948;-63
2021/01/02 06:20:48;;;;;;;;;;;23.40;38.20;;;;;;1578235;74;748;-64
2021/01/02 06:22:50;;;;;;;;;;;23.40;38.40;;;;;;1585848;75;768;-64
2021/01/02 06:24:52;;;;;;;;;;;23.40;38.30;;;;;;1565218;74;793;-63
2021/01/02 06:26:54;;;;;;;;;;;23.50;38.40;;;;;;1582438;74;1088;-63
2021/01/02 06:28:55;;;;;;;;;;;23.50;38.40;;;;;;1568516;74;819;-64
2021/01/02 06:30:59;;;;;;;;;;;23.50;38.40;;;;;;1564061;74;753;-64
2021/01/02 06:33:01;;;;;;;;;;;23.40;38.30;;;;;;1562138;74;1777;-63
2021/01/02 06:35:11;;;;;;;;;;;23.40;38.40;;;;;;1577167;75;834;-62
2021/01/02 06:37:12;;;;;;;;;;;23.60;38.50;;;;;;1568662;74;1087;-62
2021/01/02 06:39:18;;;;;;;;;;;23.50;38.40;;;;;;1557985;74;1954;-63
2021/01/02 06:41:21;;;;;;;;;;;23.60;38.30;;;;;;1562093;74;877;-64
2021/01/02 06:43:24;;;;;;;;;;;23.60;38.30;;;;;;1534844;76;1175;-63
2021/01/02 06:45:37;;;;;;;;;;;23.60;38.20;;;;;;1574411;74;1139;-64
2021/01/02 06:47:39;;;;;;;;;;;23.60;38.20;;;;;;1586023;74;706;-63
2021/01/02 06:49:41;;;;;;;;;;;23.60;38.20;;;;;;1576722;74;751;-63
2021/01/02 06:51:43;;;;;;;;;;;23.60;38.10;;;;;;1569719;74;760;-64
2021/01/02 06:53:44;;;;;;;;;;;23.60;38.20;;;;;;1532550;76;1166;-63
2021/01/02 06:55:46;;;;;;;;;;;23.60;38.10;;;;;;1565029;74;1156;-64
2021/01/02 06:57:49;;;;;;;;;;;23.60;38.10;;;;;;1564914;75;1949;-64
2021/01/02 06:59:50;;;;;;;;;;;23.60;38.10;;;;;;1578064;74;761;-64
2021/01/02 07:01:52;;;;;;;;;;;23.50;38.10;;;;;;1577421;74;824;-63
2021/01/02 07:03:54;;;;;;;;;;;23.60;38.20;;;;;;1567661;74;799;-63
2021/01/02 07:05:56;;;;;;;;;;;23.60;38.10;;;;;;1566524;74;1195;-63
2021/01/02 07:07:58;;;;;;;;;;;23.60;38.10;;;;;;1545215;76;726;-64
2021/01/02 07:10:00;;;;;;;;;;;23.70;38.10;;;;;;1565233;75;737;-63
2021/01/02 07:12:08;;;;;;;;;;;23.70;38.10;;;;;;1529266;76;749;-62
2021/01/02 07:14:12;;;;;;;;;;;23.60;38.10;;;;;;1544754;75;766;-63
2021/01/02 07:16:18;;;;;;;;;;;23.60;38.10;;;;;;1533586;75;1190;-63
2021/01/02 07:18:26;;;;;;;;;;;23.60;38.00;;;;;;1548794;75;1939;-64
2021/01/02 07:20:28;;;;;;;;;;;23.60;37.90;;;;;;1558597;75;734;-62
2021/01/02 07:22:30;;;;;;;;;;;23.70;38.00;;;;;;1549077;75;775;-61
2021/01/02 07:24:32;;;;;;;;;;;23.70;38.00;;;;;;1561458;75;772;-61
2021/01/02 07:26:36;;;;;;;;;;;23.60;37.80;;;;;;1570507;75;1142;-62
2021/01/02 07:28:39;;;;;;;;;;;23.60;37.90;;;;;;1561987;75;1850;-64
2021/01/02 07:30:41;;;;;;;;;;;23.60;37.90;;;;;;1552077;75;1882;-62
2021/01/02 07:32:43;;;;;;;;;;;23.60;38.00;;;;;;1557179;75;733;-65
2021/01/02 07:34:46;;;;;;;;;;;23.50;38.20;;;;;;1540727;75;814;-63
2021/01/02 07:36:48;;;;;;;;;;;23.60;38.30;;;;;;1555318;75;1142;-62
2021/01/02 07:38:50;;;;;;;;;;;23.50;38.40;;;;;;1563214;75;1928;-63
2021/01/02 07:40:52;;;;;;;;;;;23.50;38.40;;;;;;1567359;75;910;-63
2021/01/02 07:42:54;;;;;;;;;;;23.50;38.40;;;;;;1512163;77;1309;-65
2021/01/02 07:45:10;;;;;;;;;;;23.40;38.30;;;;;;1569421;75;824;-62
2021/01/02 07:47:12;;;;;;;;;;;23.50;38.50;;;;;;1556104;75;1182;-63
2021/01/02 07:49:15;;;;;;;;;;;23.50;38.50;;;;;;1535131;75;873;-63
2021/01/02 07:51:17;;;;;;;;;;;23.50;38.40;;;;;;1551318;75;762;-61
2021/01/02 07:53:19;;;;;;;;;;;23.50;38.30;;;;;;1562159;75;790;-63
2021/01/02 07:55:21;;;;;;;;;;;23.60;38.20;;;;;;1555046;75;824;-64
2021/01/02 07:57:24;;;;;;;;;;;23.50;38.30;;;;;;1570718;75;775;-63
2021/01/02 07:59:27;;;;;;;;;;;23.50;38.30;;;;;;1558109;75;1930;-63
2021/01/02 08:01:29;;;;;;;;;;;23.60;38.20;;;;;;1547151;75;736;-64
2021/01/02 08:03:31;;;;;;;;;;;23.60;38.30;;;;;;1575085;75;740;-65
2021/01/02 08:05:32;;;;;;;;;;;23.50;37.60;;;;;;1560409;75;1188;-65
2021/01/02 08:07:34;;;;;;;;;;;23.50;38.00;;;;;;1566428;75;1052;-64
2021/01/02 08:09:36;;;;;;;;;;;23.40;37.80;;;;;;1577117;75;780;-64
2021/01/02 08:11:38;;;;;;;;;;;23.30;37.60;;;;;;1564621;75;765;-64
2021/01/02 08:13:40;;;;;;;;;;;23.40;37.90;;;;;;1555552;75;800;-65
2021/01/02 08:15:42;;;;;;;;;;;23.40;37.70;;;;;;1556213;74;1173;-64
2021/01/02 08:17:44;;;;;;;;;;;23.50;37.70;;;;;;1559381;75;754;-65
2021/01/02 08:19:51;;;;;;;;;;;23.50;37.50;;;;;;1571258;74;1931;-65
2021/01/02 08:21:52;;;;;;;;;;;23.50;37.40;;;;;;1579313;75;775;-65
2021/01/02 08:23:54;;;;;;;;;;;23.40;37.10;;;;;;1573048;75;738;-66
2021/01/02 08:25:56;;;;;;;;;;;23.50;37.10;;;;;;1577078;74;1135;-66
2021/01/02 08:27:58;;;;;;;;;;;23.50;37.10;;;;;;1561371;75;764;-66
2021/01/02 08:30:03;;;;;;;;;;;23.30;37.10;;;;;;1565066;75;707;-65
2021/01/02 08:32:10;;;;;;;;;;;23.40;37.10;;;;;;1557097;75;1092;-67
2021/01/02 08:34:13;;;;;;;;;;;23.30;37.00;;;;;;1562908;75;790;-66
2021/01/02 08:36:15;;;;;;;;;;;23.30;37.00;;;;;;1559865;75;1120;-66
2021/01/02 08:38:17;;;;;;;;;;;23.40;36.90;;;;;;1571566;74;755;-67
2021/01/02 08:40:19;;;;;;;;;;;23.30;36.90;;;;;;1568859;75;836;-67
2021/01/02 08:42:20;;;;;;;;;;;23.40;36.90;;;;;;1559008;74;776;-67
2021/01/02 08:44:23;;;;;;;;;;;23.40;36.90;;;;;;1568322;74;692;-66
2021/01/02 08:46:25;;;;;;;;;;;23.40;36.80;;;;;;1565777;75;1145;-66
2021/01/02 08:48:27;;;;;;;;;;;23.30;36.80;;;;;;1564992;75;735;-64
2021/01/02 08:50:29;;;;;;;;;;;23.30;36.70;;;;;;1556174;74;880;-64
2021/01/02 08:52:35;;;;;;;;;;;23.30;36.70;;;;;;1561134;75;658;-64
2021/01/02 08:54:37;;;;;;;;;;;23.30;36.70;;;;;;1573832;75;764;-64
2021/01/02 08:56:38;;;;;;;;;;;23.30;36.80;;;;;;1558669;74;1118;-65
2021/01/02 08:58:40;;;;;;;;;;;23.30;36.80;;;;;;1561873;75;1942;-64
2021/01/02 09:00:43;;;;;;;;;;;23.20;36.80;;;;;;1564829;75;730;-64
2021/01/02 09:02:46;;;;;;;;;;;23.30;36.90;;;;;;1561455;75;766;-64
2021/01/02 09:05:04;;;;;;;;;;;23.40;36.80;;;;;;1565962;75;737;-64
2021/01/02 09:07:06;;;;;;;;;;;23.40;36.80;;;;;;1563712;74;1165;-63
2021/01/02 09:09:08;;;;;;;;;;;23.40;36.80;;;;;;1563826;75;805;-64
2021/01/02 09:11:10;;;;;;;;;;;23.30;36.80;;;;;;1559663;75;773;-63
2021/01/02 09:13:23;;;;;;;;;;;23.40;36.80;;;;;;1557303;74;783;-63
2021/01/02 09:15:26;;;;;;;;;;;23.40;36.80;;;;;;1561712;75;1158;-64
2021/01/02 09:17:28;;;;;;;;;;;23.40;36.80;;;;;;1554105;75;1724;-65
2021/01/02 09:19:30;;;;;;;;;;;23.40;36.80;;;;;;1563272;74;1966;-64
2021/01/02 09:21:32;;;;;;;;;;;23.40;36.70;;;;;;1568100;75;696;-64
2021/01/02 09:23:34;;;;;;;;;;;23.30;36.80;;;;;;1562050;75;858;-64
2021/01/02 09:25:37;;;;;;;;;;;23.40;36.70;;;;;;1564857;75;1117;-68
2021/01/02 09:27:45;;;;;;;;;;;23.30;36.70;;;;;;1560955;74;743;-66
2021/01/02 09:29:46;;;;;;;;;;;23.30;36.80;;;;;;1560301;74;817;-65
2021/01/02 09:31:48;;;;;;;;;;;23.40;36.70;;;;;;1574486;75;686;-66
2021/01/02 09:33:50;;;;;;;;;;;23.30;37.00;;;;;;1567302;74;755;-65
2021/01/02 09:35:52;;;;;;;;;;;23.30;36.90;;;;;;1567694;74;1097;-62
2021/01/02 09:37:54;;;;;;;;;;;23.40;37.00;;;;;;1571357;75;861;-62
2021/01/02 09:40:10;;;;;;;;;;;23.40;37.00;;;;;;1559783;74;1932;-62
2021/01/02 09:42:12;;;;;;;;;;;23.40;37.00;;;;;;1570184;75;908;-61
2021/01/02 09:44:13;;;;;;;;;;;23.40;37.00;;;;;;1567704;75;794;-62
2021/01/02 09:46:18;;;;;;;;;;;23.40;36.90;;;;;;1564569;75;1138;-62
2021/01/02 09:48:20;;;;;;;;;;;23.50;37.00;;;;;;1566928;75;1114;-63
2021/01/02 09:50:22;;;;;;;;;;;23.50;37.10;;;;;;1564722;75;783;-62
2021/01/02 09:52:24;;;;;;;;;;;23.50;37.00;;;;;;1558883;74;783;-62
2021/01/02 09:54:26;;;;;;;;;;;23.40;37.00;;;;;;1567132;74;827;-61
2021/01/02 09:56:28;;;;;;;;;;;23.50;37.10;;;;;;1575403;75;1085;-61
2021/01/02 09:58:30;;;;;;;;;;;23.50;37.10;;;;;;1563911;74;774;-61
2021/01/02 10:00:32;;;;;;;;;;;23.50;37.00;;;;;;1575139;74;1932;-61
2021/01/02 10:02:33;;;;;;;;;;;23.50;36.90;;;;;;1565987;75;777;-63
2021/01/02 10:04:37;;;;;;;;;;;23.60;36.90;;;;;;1568267;75;895;-63
2021/01/02 10:06:40;;;;;;;;;;;23.60;36.80;;;;;;1573112;75;1811;-62
2021/01/02 10:08:42;;;;;;;;;;;23.50;36.80;;;;;;1578728;74;1833;-62
2021/01/02 10:10:44;;;;;;;;;;;23.60;37.00;;;;;;1572781;74;805;-61
2021/01/02 10:12:46;;;;;;;;;;;23.60;36.90;;;;;;1577550;74;766;-62
2021/01/02 10:14:48;;;;;;;;;;;23.50;36.90;;;;;;1577637;74;763;-63
2021/01/02 10:16:50;;;;;;;;;;;23.60;36.80;;;;;;1578014;74;1173;-63
2021/01/02 10:18:52;;;;;;;;;;;23.60;36.80;;;;;;1574903;74;733;-63
2021/01/02 10:20:54;;;;;;;;;;;23.60;36.70;;;;;;1578869;74;988;-62
2021/01/02 10:22:56;;;;;;;;;;;23.60;36.60;;;;;;1573895;74;743;-63
2021/01/02 10:24:58;;;;;;;;;;;23.60;36.60;;;;;;1574300;74;734;-62
2021/01/02 10:26:59;;;;;;;;;;;23.70;36.70;;;;;;1576950;74;1129;-62
2021/01/02 10:29:04;;;;;;;;;;;23.70;36.70;;;;;;1584587;74;681;-63
2021/01/02 10:31:05;;;;;;;;;;;23.70;36.70;;;;;;1576771;74;1683;-65
2021/01/02 10:33:07;;;;;;;;;;;23.60;36.50;;;;;;1583085;74;808;-63
2021/01/02 10:35:09;;;;;;;;;;;23.60;36.80;;;;;;1566911;74;774;-64
2021/01/02 10:37:12;;;;;;;;;;;23.60;36.80;;;;;;1590364;74;1190;-66
2021/01/02 10:39:13;;;;;;;;;;;23.60;36.80;;;;;;1587168;74;1929;-65
2021/01/02 10:41:15;;;;;;;;;;;23.60;36.80;;;;;;1585070;74;744;-65
2021/01/02 10:43:17;;;;;;;;;;;23.60;36.80;;;;;;1567089;74;827;-63
2021/01/02 10:45:19;;;;;;;;;;;23.60;36.80;;;;;;1576587;74;728;-63
2021/01/02 10:47:22;;;;;;;;;;;23.60;36.70;;;;;;1576711;74;1176;-65
2021/01/02 10:49:24;;;;;;;;;;;23.60;36.70;;;;;;1581954;74;754;-67
2021/01/02 10:51:26;;;;;;;;;;;23.50;36.60;;;;;;1569346;74;755;-64
2021/01/02 10:53:28;;;;;;;;;;;23.50;36.80;;;;;;1575076;74;671;-64
2021/01/02 10:55:30;;;;;;;;;;;23.50;36.80;;;;;;1575541;74;1134;-64
2021/01/02 10:57:32;;;;;;;;;;;23.50;36.50;;;;;;1575482;74;771;-64
2021/01/02 10:59:34;;;;;;;;;;;23.60;36.50;;;;;;1570763;74;1943;-65
2021/01/02 11:01:42;;;;;;;;;;;23.60;36.30;;;;;;1566740;74;797;-65
2021/01/02 11:03:44;;;;;;;;;;;23.70;36.40;;;;;;1575304;74;778;-65
2021/01/02 11:05:46;;;;;;;;;;;23.60;36.20;;;;;;1570094;74;1153;-64
2021/01/02 11:07:48;;;;;;;;;;;23.60;36.10;;;;;;1572651;74;1065;-64
2021/01/02 11:09:50;;;;;;;;;;;23.60;36.00;;;;;;1573852;75;749;-64
2021/01/02 11:11:52;;;;;;;;;;;23.60;36.00;;;;;;1567113;75;704;-65
2021/01/02 11:13:54;;;;;;;;;;;23.60;36.00;;;;;;1561751;75;791;-65
2021/01/02 11:15:56;;;;;;;;;;;23.70;36.00;;;;;;1565861;75;1189;-64
2021/01/02 11:17:58;;;;;;;;;;;23.70;36.10;;;;;;1557894;75;784;-65
2021/01/02 11:20:00;;;;;;;;;;;23.60;35.90;;;;;;1561247;74;1942;-64
2021/01/02 11:22:02;;;;;;;;;;;23.70;36.00;;;;;;1569309;75;742;-65
2021/01/02 11:24:04;;;;;;;;;;;23.60;35.80;;;;;;1579884;75;815;-65
2021/01/02 11:26:10;;;;;;;;;;;23.60;35.90;;;;;;1560063;75;1186;-64
2021/01/02 11:28:12;;;;;;;;;;;23.60;35.80;;;;;;1562536;75;787;-64
2021/01/02 11:30:14;;;;;;;;;;;23.60;35.70;;;;;;1567168;75;738;-64
2021/01/02 11:32:16;;;;;;;;;;;23.60;35.70;;;;;;1563875;75;814;-64
2021/01/02 11:34:18;;;;;;;;;;;23.50;35.70;;;;;;1555284;75;724;-64
2021/01/02 11:36:20;;;;;;;;;;;23.60;35.60;;;;;;1572919;75;1154;-64
2021/01/02 11:38:21;;;;;;;;;;;23.60;35.60;;;;;;1559817;75;749;-65
2021/01/02 11:40:23;;;;;;;;;;;23.60;35.50;;;;;;1565172;74;1952;-64
2021/01/02 11:42:25;;;;;;;;;;;23.60;35.60;;;;;;1563582;75;816;-64
2021/01/02 11:44:27;;;;;;;;;;;23.50;35.60;;;;;;1560457;75;759;-64
2021/01/02 11:46:29;;;;;;;;;;;23.60;35.50;;;;;;1563978;75;1119;-64
2021/01/02 11:48:31;;;;;;;;;;;23.60;35.50;;;;;;1554510;75;833;-64
2021/01/02 11:50:33;;;;;;;;;;;23.50;35.50;;;;;;1560692;75;686;-64
2021/01/02 11:52:35;;;;;;;;;;;23.60;35.50;;;;;;1560748;75;779;-64
2021/01/02 11:54:37;;;;;;;;;;;23.50;35.50;;;;;;1558335;75;711;-64
2021/01/02 11:56:39;;;;;;;;;;;23.50;35.50;;;;;;1569762;75;1180;-64
2021/01/02 11:58:41;;;;;;;;;;;23.50;35.40;;;;;;1568752;75;789;-64
2021/01/02 12:00:42;;;;;;;;;;;23.50;35.40;;;;;;1567886;75;1939;-64
2021/01/02 12:02:44;;;;;;;;;;;23.60;35.40;;;;;;1567178;75;732;-64
2021/01/02 12:04:46;;;;;;;;;;;23.50;35.40;;;;;;1575026;75;705;-64
2021/01/02 12:06:48;;;;;;;;;;;23.60;35.40;;;;;;1564098;75;1182;-64
2021/01/02 12:08:50;;;;;;;;;;;23.60;35.40;;;;;;1567206;75;1070;-64
2021/01/02 12:10:52;;;;;;;;;;;23.60;35.30;;;;;;1577485;74;732;-64
2021/01/02 12:12:54;;;;;;;;;;;23.50;35.40;;;;;;1568454;74;774;-64
2021/01/02 12:14:55;;;;;;;;;;;23.50;35.40;;;;;;1576057;74;753;-64